createdAt,value
2023-03-29T00:02:30.208Z,1.20
2023-03-29T00:04:58.131Z,1.50
2023-03-29T00:07:26.038Z,2.05
2023-03-29T00:09:52.972Z,1.58
2023-03-29T00:12:19.468Z,1.25
2023-03-29T00:14:46.289Z,2.00
2023-03-29T00:17:12.945Z,1.58
2023-03-29T00:19:39.581Z,1.42
2023-03-29T00:22:06.252Z,1.52
2023-03-29T00:24:32.988Z,1.13
2023-03-29T00:26:59.542Z,1.88
2023-03-29T00:29:26.032Z,1.13
2023-03-29T00:31:54.304Z,2.17
2023-03-29T00:34:21.256Z,1.65
2023-03-29T00:36:50.907Z,1.40
2023-03-29T00:39:18.315Z,1.85
2023-03-29T00:41:46.296Z,1.35
2023-03-29T00:44:50.494Z,1.50
2023-03-29T00:47:18.231Z,1.65
2023-03-29T00:49:46.189Z,1.25
2023-03-29T00:52:14.133Z,1.48
2023-03-29T00:54:43.237Z,1.33
2023-03-29T00:57:10.609Z,1.90
2023-03-29T00:59:39.144Z,1.65
2023-03-29T01:02:07.126Z,1.20
2023-03-29T01:04:45.438Z,1.73
2023-03-29T01:07:35.169Z,1.55
2023-03-29T01:10:14.672Z,1.60
2023-03-29T01:12:46.726Z,1.92
2023-03-29T01:15:17.711Z,1.63
2023-03-29T01:17:50.090Z,1.45
2023-03-29T01:20:31.893Z,1.27
2023-03-29T01:23:07.675Z,1.80
2023-03-29T01:25:43.555Z,1.42
2023-03-29T01:28:15.718Z,1.75
2023-03-29T01:30:48.807Z,0.95
2023-03-29T01:33:21.270Z,1.23
2023-03-29T01:35:54.832Z,1.27
2023-03-29T01:38:30.501Z,1.25
2023-03-29T01:40:56.996Z,2.00
2023-03-29T01:43:37.693Z,1.05
2023-03-29T01:46:15.982Z,1.52
2023-03-29T01:48:55.917Z,1.52
2023-03-29T01:51:41.071Z,1.25
2023-03-29T01:54:39.370Z,0.98
2023-03-29T01:57:06.877Z,1.05
2023-03-29T01:59:34.773Z,1.00
2023-03-29T02:02:04.823Z,0.98
2023-03-29T02:04:37.962Z,1.17
2023-03-29T02:07:07.303Z,1.38
2023-03-29T02:09:35.138Z,1.00
2023-03-29T02:12:02.270Z,1.17
2023-03-29T02:14:30.378Z,1.20
2023-03-29T02:16:56.999Z,1.40
2023-03-29T02:19:25.193Z,1.02
2023-03-29T02:22:05.809Z,1.80
2023-03-29T02:24:33.657Z,1.10
2023-03-29T02:27:01.173Z,1.27
2023-03-29T02:29:27.644Z,1.35
2023-03-29T02:32:00.146Z,1.23
2023-03-29T02:34:30.933Z,1.48
2023-03-29T02:37:03.201Z,0.90
2023-03-29T02:39:32.187Z,1.27
2023-03-29T02:41:59.060Z,0.80
2023-03-29T02:44:28.623Z,1.02
2023-03-29T02:47:01.870Z,1.05
2023-03-29T02:49:28.418Z,0.95
2023-03-29T02:51:57.724Z,1.13
2023-03-29T02:54:25.967Z,1.02
2023-03-29T02:57:00.414Z,1.25
2023-03-29T02:59:27.433Z,1.00
2023-03-29T03:01:54.045Z,1.25
2023-03-29T03:04:23.144Z,1.02
2023-03-29T03:06:50.076Z,1.30
2023-03-29T03:09:17.002Z,1.30
2023-03-29T03:11:44.065Z,0.93
2023-03-29T03:14:10.887Z,0.63
2023-03-29T03:16:37.410Z,0.82
2023-03-29T03:19:04.232Z,0.77
2023-03-29T03:21:30.745Z,1.25
2023-03-29T03:23:57.190Z,1.02
2023-03-29T03:26:29.924Z,2.30
2023-03-29T03:28:57.329Z,1.00
2023-03-29T03:31:23.846Z,1.20
2023-03-29T03:33:50.380Z,1.83
2023-03-29T03:36:16.872Z,2.95
2023-03-29T03:38:44.044Z,1.25
2023-03-29T03:41:10.596Z,1.95
2023-03-29T03:43:37.112Z,1.15
2023-03-29T03:46:03.740Z,1.45
2023-03-29T03:48:30.378Z,0.98
2023-03-29T03:50:58.310Z,1.55
2023-03-29T03:53:26.156Z,1.83
2023-03-29T03:55:54.171Z,1.30
2023-03-29T03:58:20.738Z,1.40
2023-03-29T04:00:50.907Z,1.67
2023-03-29T04:03:18.158Z,1.02
2023-03-29T04:05:46.019Z,1.55
2023-03-29T04:08:12.982Z,1.25
2023-03-29T04:10:39.591Z,1.40
2023-03-29T04:13:06.183Z,1.48
2023-03-29T04:15:33.997Z,1.30
2023-03-29T04:18:00.663Z,1.20
2023-03-29T04:20:27.547Z,1.00
2023-03-29T04:22:54.200Z,1.30
2023-03-29T04:25:22.284Z,1.20
2023-03-29T04:27:50.058Z,0.93
2023-03-29T04:30:16.979Z,1.50
2023-03-29T04:32:43.564Z,1.50
2023-03-29T04:35:10.173Z,1.77
2023-03-29T04:37:40.249Z,1.15
2023-03-29T04:40:14.873Z,1.05
2023-03-29T04:42:46.095Z,1.95
2023-03-29T04:45:18.135Z,1.23
2023-03-29T04:47:45.827Z,1.17
2023-03-29T04:50:13.825Z,1.33
2023-03-29T04:52:40.964Z,1.15
2023-03-29T04:55:08.001Z,1.52
2023-03-29T04:57:34.799Z,1.58
2023-03-29T05:00:01.411Z,1.80
2023-03-29T05:02:28.006Z,1.60
2023-03-29T05:04:54.554Z,1.45
2023-03-29T05:07:21.048Z,1.88
2023-03-29T05:09:48.048Z,1.63
2023-03-29T05:12:14.511Z,1.38
2023-03-29T05:14:41.330Z,1.38
2023-03-29T05:17:08.133Z,1.38
2023-03-29T05:19:36.369Z,2.00
2023-03-29T05:22:02.821Z,1.27
2023-03-29T05:24:29.276Z,1.58
2023-03-29T05:26:56.352Z,1.90
2023-03-29T05:29:23.536Z,1.92
2023-03-29T05:31:50.084Z,2.13
2023-03-29T05:34:16.567Z,1.08
2023-03-29T05:36:43.289Z,1.42
2023-03-29T05:39:10.872Z,2.25
2023-03-29T05:41:38.005Z,3.30
2023-03-29T05:44:04.631Z,1.13
2023-03-29T05:46:31.508Z,1.55
2023-03-29T05:48:58.026Z,2.10
2023-03-29T05:51:24.744Z,1.90
2023-03-29T05:53:51.985Z,1.42
2023-03-29T05:56:19.020Z,1.98
2023-03-29T05:58:49.401Z,1.90
2023-03-29T06:01:17.752Z,1.90
2023-03-29T06:03:45.924Z,1.67
2023-03-29T06:06:15.149Z,1.58
2023-03-29T06:08:42.009Z,1.92
2023-03-29T06:11:09.119Z,1.98
2023-03-29T06:13:37.112Z,2.28
2023-03-29T06:16:04.341Z,1.83
2023-03-29T06:18:31.104Z,2.25
2023-03-29T06:20:57.712Z,2.33
2023-03-29T06:23:24.887Z,1.75
2023-03-29T06:25:51.544Z,2.25
2023-03-29T06:28:19.130Z,2.10
2023-03-29T06:30:48.311Z,2.45
2023-03-29T06:33:15.560Z,1.98
2023-03-29T06:35:46.589Z,2.38
2023-03-29T06:38:16.916Z,1.42
2023-03-29T06:40:44.635Z,1.80
2023-03-29T06:43:11.133Z,2.55
2023-03-29T06:45:38.746Z,1.80
2023-03-29T06:48:06.411Z,2.00
2023-03-29T06:50:34.151Z,2.30
2023-03-29T06:53:01.566Z,2.25
2023-03-29T06:55:28.688Z,1.92
2023-03-29T06:57:55.477Z,1.75
2023-03-29T07:00:28.623Z,2.40
2023-03-29T07:02:58.036Z,2.72
2023-03-29T07:05:27.600Z,2.20
2023-03-29T07:08:00.296Z,2.00
2023-03-29T07:10:32.094Z,1.95
2023-03-29T07:13:00.633Z,2.00
2023-03-29T07:15:27.943Z,2.20
2023-03-29T07:17:54.608Z,1.77
2023-03-29T07:20:22.894Z,2.17
2023-03-29T07:22:51.178Z,1.90
2023-03-29T07:25:18.737Z,2.35
2023-03-29T07:27:46.385Z,1.80
2023-03-29T07:30:19.057Z,2.17
2023-03-29T07:32:46.366Z,1.95
2023-03-29T07:35:14.823Z,1.90
2023-03-29T07:37:42.763Z,2.40
2023-03-29T07:40:15.971Z,2.55
2023-03-29T07:42:43.964Z,1.63
2023-03-29T07:45:11.432Z,1.85
2023-03-29T07:47:38.407Z,2.20
2023-03-29T07:50:06.000Z,1.95
2023-03-29T07:52:32.798Z,1.67
2023-03-29T07:54:59.590Z,1.90
2023-03-29T07:57:26.687Z,2.20
2023-03-29T07:59:54.053Z,1.70
2023-03-29T08:02:21.291Z,2.38
2023-03-29T08:04:48.126Z,1.77
2023-03-29T08:07:17.618Z,1.45
2023-03-29T08:09:45.510Z,1.83
2023-03-29T08:12:12.032Z,1.75
2023-03-29T08:14:38.653Z,1.70
2023-03-29T08:17:05.314Z,1.73
2023-03-29T08:19:32.237Z,2.03
2023-03-29T08:21:59.102Z,1.48
2023-03-29T08:24:26.464Z,1.25
2023-03-29T08:26:53.396Z,1.70
2023-03-29T08:29:19.921Z,2.38
2023-03-29T08:31:46.435Z,1.75
2023-03-29T08:34:13.819Z,1.35
2023-03-29T08:36:40.398Z,1.95
2023-03-29T08:39:06.908Z,1.70
2023-03-29T08:41:42.588Z,1.67
2023-03-29T08:44:16.344Z,2.05
2023-03-29T08:47:07.256Z,1.52
2023-03-29T08:49:38.051Z,2.10
2023-03-29T08:52:06.923Z,1.48
2023-03-29T08:54:41.567Z,1.52
2023-03-29T08:57:22.998Z,1.42
2023-03-29T09:02:25.123Z,1.52
2023-03-29T09:04:52.995Z,1.38
2023-03-29T09:07:20.187Z,1.38
2023-03-29T09:09:46.793Z,1.65
2023-03-29T09:12:16.606Z,1.58
2023-03-29T09:15:21.549Z,1.23
2023-03-29T09:17:58.686Z,1.17
2023-03-29T09:20:58.507Z,1.88
2023-03-29T09:23:44.371Z,1.60
2023-03-29T09:26:16.620Z,1.95
2023-03-29T09:28:52.071Z,2.17
2023-03-29T09:31:24.592Z,2.15
2023-03-29T09:34:04.976Z,1.33
2023-03-29T09:36:43.193Z,1.50
2023-03-29T09:39:11.492Z,1.80
2023-03-29T09:42:11.886Z,1.48
2023-03-29T09:44:46.863Z,1.55
2023-03-29T09:47:19.099Z,1.63
2023-03-29T09:49:49.056Z,1.60
2023-03-29T09:52:16.963Z,1.60
2023-03-29T09:54:43.996Z,1.50
2023-03-29T09:57:12.177Z,1.40
2023-03-29T09:59:39.483Z,1.30
2023-03-29T10:02:12.806Z,1.35
2023-03-29T10:04:41.969Z,1.60
2023-03-29T10:07:13.283Z,1.85
2023-03-29T10:09:42.423Z,1.27
2023-03-29T10:12:10.845Z,1.75
2023-03-29T10:14:41.736Z,1.95
2023-03-29T10:17:16.134Z,1.80
2023-03-29T10:19:52.033Z,2.05
2023-03-29T10:22:33.221Z,1.80
2023-03-29T10:24:59.670Z,1.70
2023-03-29T10:27:28.370Z,1.80
2023-03-29T10:29:55.679Z,2.08
2023-03-29T10:32:22.942Z,2.10
2023-03-29T10:34:50.404Z,1.67
2023-03-29T10:37:19.274Z,1.98
2023-03-29T10:39:46.835Z,1.85
2023-03-29T10:42:15.560Z,1.95
2023-03-29T10:44:42.188Z,1.60
2023-03-29T10:47:20.360Z,1.77
2023-03-29T10:49:56.363Z,1.70
2023-03-29T10:52:23.531Z,2.00
2023-03-29T10:54:52.297Z,1.92
2023-03-29T10:57:35.468Z,2.33
2023-03-29T11:00:25.632Z,2.13
2023-03-29T11:03:35.988Z,1.90
2023-03-29T11:06:27.002Z,2.03
2023-03-29T11:09:02.312Z,1.63
2023-03-29T11:12:01.083Z,2.65
2023-03-29T11:14:43.859Z,1.90
2023-03-29T11:17:20.752Z,1.85
2023-03-29T11:20:21.595Z,1.80
2023-03-29T11:23:13.891Z,1.85
2023-03-29T11:26:19.650Z,1.95
2023-03-29T11:29:04.572Z,2.08
2023-03-29T11:31:49.376Z,1.70
2023-03-29T11:34:22.087Z,1.70
2023-03-29T11:37:03.507Z,1.85
2023-03-29T11:39:46.190Z,1.95
2023-03-29T11:42:18.025Z,2.33
2023-03-29T11:44:47.035Z,1.50
2023-03-29T11:47:17.818Z,1.80
2023-03-29T11:49:52.472Z,1.83
2023-03-29T11:52:29.178Z,1.65
2023-03-29T11:54:59.446Z,1.95
2023-03-29T11:57:29.771Z,2.08
2023-03-29T12:00:14.744Z,1.90
2023-03-29T12:02:48.016Z,1.73
2023-03-29T12:05:22.544Z,1.90
2023-03-29T12:07:54.562Z,1.75
2023-03-29T12:10:23.959Z,1.98
2023-03-29T12:13:18.189Z,2.03
2023-03-29T12:15:55.769Z,1.85
2023-03-29T12:18:31.110Z,1.73
2023-03-29T12:21:03.347Z,1.42
2023-03-29T12:23:34.558Z,1.85
2023-03-29T12:26:06.409Z,1.40
2023-03-29T12:29:11.002Z,1.77
2023-03-29T12:34:44.418Z,1.80
2023-03-29T12:37:27.660Z,1.67
2023-03-29T12:40:12.455Z,1.60
2023-03-29T12:42:52.454Z,1.55
2023-03-29T12:45:21.690Z,1.95
2023-03-29T12:47:50.971Z,1.90
2023-03-29T12:50:41.767Z,1.83
2023-03-29T12:53:24.160Z,1.50
2023-03-29T12:55:54.371Z,1.45
2023-03-29T12:58:39.404Z,1.58
2023-03-29T13:01:22.589Z,1.75
2023-03-29T13:04:00.370Z,1.50
2023-03-29T13:06:34.367Z,1.70
2023-03-29T13:09:21.519Z,1.00
2023-03-29T13:11:57.114Z,1.48
2023-03-29T13:14:26.526Z,1.30
2023-03-29T13:16:53.751Z,1.25
2023-03-29T13:19:38.572Z,1.33
2023-03-29T13:22:25.281Z,1.35
2023-03-29T13:25:02.215Z,1.20
2023-03-29T13:27:39.748Z,1.52
2023-03-29T13:30:26.256Z,1.40
2023-03-29T13:33:11.742Z,1.30
2023-03-29T13:36:00.377Z,1.48
2023-03-29T13:38:31.680Z,1.20
2023-03-29T13:41:01.419Z,1.83
2023-03-29T13:43:50.983Z,1.33
2023-03-29T13:46:34.326Z,1.42
2023-03-29T13:49:06.866Z,1.70
2023-03-29T13:51:37.444Z,1.80
2023-03-29T13:56:49.200Z,2.15
2023-03-29T13:59:19.452Z,1.55
2023-03-29T14:01:57.401Z,1.45
2023-03-29T14:04:26.665Z,1.80
2023-03-29T14:06:55.752Z,1.60
2023-03-29T14:09:26.098Z,2.10
2023-03-29T14:11:52.666Z,2.03
2023-03-29T14:14:24.011Z,1.98
2023-03-29T14:16:51.053Z,1.58
2023-03-29T14:19:22.038Z,2.10
2023-03-29T14:21:49.149Z,2.08
2023-03-29T14:24:22.489Z,2.03
2023-03-29T14:26:49.135Z,1.75
2023-03-29T14:29:16.163Z,2.33
2023-03-29T14:31:42.940Z,1.65
2023-03-29T14:34:18.363Z,2.20
2023-03-29T14:36:47.097Z,1.90
2023-03-29T14:39:23.451Z,2.22
2023-03-29T14:46:46.828Z,2.05
2023-03-29T14:49:18.060Z,2.05
2023-03-29T14:51:45.901Z,2.22
2023-03-29T14:54:23.530Z,2.67
2023-03-29T14:56:50.419Z,2.38
2023-03-29T14:59:37.134Z,2.45
2023-03-29T15:02:04.834Z,2.42
2023-03-29T15:04:35.596Z,2.60
2023-03-29T15:07:04.301Z,2.60
2023-03-29T15:09:32.988Z,2.78
2023-03-29T15:12:00.819Z,2.50
2023-03-29T15:14:33.905Z,2.50
2023-03-29T15:17:07.733Z,2.65
2023-03-29T15:19:34.361Z,2.88
2023-03-29T15:22:10.228Z,2.90
2023-03-29T15:24:44.040Z,2.38
2023-03-29T15:27:18.634Z,2.75
2023-03-29T15:29:47.337Z,2.83
2023-03-29T15:32:24.979Z,3.00
2023-03-29T15:35:02.561Z,3.25
2023-03-29T15:37:29.178Z,3.17
2023-03-29T15:39:56.461Z,3.30
2023-03-29T15:42:24.031Z,2.90
2023-03-29T15:44:54.692Z,2.97
2023-03-29T15:47:21.259Z,3.38
2023-03-29T15:49:47.773Z,2.58
2023-03-29T15:52:14.256Z,3.13
2023-03-29T15:54:41.072Z,3.28
2023-03-29T15:57:12.932Z,3.13
2023-03-29T15:59:39.738Z,3.13
2023-03-29T16:02:07.787Z,2.55
2023-03-29T16:04:34.388Z,3.95
2023-03-29T16:07:01.267Z,3.92
2023-03-29T16:09:27.846Z,3.30
2023-03-29T16:11:54.762Z,3.55
2023-03-29T16:14:25.192Z,3.50
2023-03-29T16:16:52.360Z,3.67
2023-03-29T16:19:19.562Z,3.20
2023-03-29T16:21:46.152Z,3.83
2023-03-29T16:24:15.204Z,3.17
2023-03-29T16:26:42.064Z,3.30
2023-03-29T16:29:08.962Z,3.67
2023-03-29T16:31:36.615Z,3.58
2023-03-29T16:34:03.951Z,3.10
2023-03-29T16:36:32.884Z,3.42
2023-03-29T16:38:59.734Z,3.35
2023-03-29T16:41:27.112Z,3.55
2023-03-29T16:43:53.668Z,4.00
2023-03-29T16:46:21.019Z,3.03
2023-03-29T16:48:48.935Z,3.58
2023-03-29T16:51:15.679Z,3.50
2023-03-29T16:53:42.970Z,3.75
2023-03-29T16:56:10.721Z,3.40
2023-03-29T16:58:39.326Z,3.00
2023-03-29T17:01:10.094Z,3.53
2023-03-29T17:03:37.431Z,2.97
2023-03-29T17:06:04.504Z,3.20
2023-03-29T17:08:31.972Z,3.38
2023-03-29T17:10:58.816Z,3.25
2023-03-29T17:13:26.020Z,3.10
2023-03-29T17:15:53.721Z,3.78
2023-03-29T17:18:22.217Z,3.00
2023-03-29T17:20:53.380Z,2.53
2023-03-29T17:23:19.945Z,3.40
2023-03-29T17:25:46.463Z,3.53
2023-03-29T17:28:13.079Z,3.35
2023-03-29T17:30:40.287Z,3.60
2023-03-29T17:33:08.057Z,3.13
2023-03-29T17:35:34.916Z,3.20
2023-03-29T17:38:01.579Z,3.08
2023-03-29T17:40:28.168Z,2.60
2023-03-29T17:42:54.656Z,2.72
2023-03-29T17:45:21.189Z,2.83
2023-03-29T17:47:47.867Z,3.05
2023-03-29T17:50:14.436Z,2.75
2023-03-29T17:52:40.927Z,3.10
2023-03-29T17:55:13.557Z,3.47
2023-03-29T17:57:41.065Z,3.15
2023-03-29T18:00:10.686Z,3.25
2023-03-29T18:02:37.314Z,3.33
2023-03-29T18:05:04.732Z,2.28
2023-03-29T18:07:31.663Z,3.35
2023-03-29T18:09:58.185Z,2.90
2023-03-29T18:12:28.449Z,3.15
2023-03-29T18:14:56.979Z,2.92
2023-03-29T18:17:24.502Z,3.40
2023-03-29T18:19:51.455Z,3.53
2023-03-29T18:22:18.617Z,3.80
2023-03-29T18:24:46.418Z,3.72
2023-03-29T18:27:13.204Z,3.47
2023-03-29T18:29:39.659Z,3.25
2023-03-29T18:32:06.993Z,3.35
2023-03-29T18:34:34.258Z,3.47
2023-03-29T18:37:00.862Z,3.90
2023-03-29T18:39:28.052Z,3.83
2023-03-29T18:41:54.535Z,3.42
2023-03-29T18:44:22.661Z,3.13
2023-03-29T18:46:49.104Z,4.25
2023-03-29T18:49:15.654Z,3.40
2023-03-29T18:51:42.755Z,3.70
2023-03-29T18:54:09.400Z,3.45
2023-03-29T18:56:35.925Z,3.50
2023-03-29T18:59:06.070Z,3.95
2023-03-29T19:01:33.253Z,4.35
2023-03-29T19:03:59.871Z,3.47
2023-03-29T19:06:26.436Z,3.83
2023-03-29T19:08:54.027Z,3.45
2023-03-29T19:11:20.451Z,3.78
2023-03-29T19:13:50.198Z,3.95
2023-03-29T19:16:17.331Z,4.40
2023-03-29T19:18:43.932Z,3.70
2023-03-29T19:21:10.632Z,3.40
2023-03-29T19:23:37.353Z,3.85
2023-03-29T19:26:05.435Z,3.97
2023-03-29T19:28:33.803Z,3.78
2023-03-29T19:31:01.744Z,3.90
2023-03-29T19:33:29.352Z,4.45
2023-03-29T19:35:56.278Z,4.30
2023-03-29T19:38:23.120Z,4.30
2023-03-29T19:40:51.380Z,4.30
2023-03-29T19:43:18.722Z,4.15
2023-03-29T19:45:46.273Z,4.43
2023-03-29T19:48:21.823Z,4.85
2023-03-29T19:50:50.120Z,4.28
2023-03-29T19:53:16.780Z,4.15
2023-03-29T19:55:45.164Z,4.38
2023-03-29T19:58:12.036Z,4.45
2023-03-29T20:00:38.897Z,4.70
2023-03-29T20:03:09.303Z,4.55
2023-03-29T20:05:37.239Z,4.90
2023-03-29T20:08:03.928Z,4.38
2023-03-29T20:10:30.585Z,4.85
2023-03-29T20:12:57.044Z,4.32
2023-03-29T20:15:25.543Z,4.95
2023-03-29T20:17:58.478Z,5.00
2023-03-29T20:20:26.697Z,5.00
2023-03-29T20:22:58.284Z,4.43
2023-03-29T20:25:25.780Z,4.60
2023-03-29T20:27:52.921Z,4.85
2023-03-29T20:30:19.484Z,4.13
2023-03-29T20:32:46.519Z,4.47
2023-03-29T20:35:13.032Z,5.53
2023-03-29T20:37:39.563Z,3.85
2023-03-29T20:40:08.178Z,4.20
2023-03-29T20:42:36.693Z,4.22
2023-03-29T20:45:03.521Z,4.70
2023-03-29T20:47:30.011Z,4.30
2023-03-29T20:49:56.778Z,4.22
2023-03-29T20:52:24.022Z,3.95
2023-03-29T20:54:50.696Z,4.40
2023-03-29T20:57:19.608Z,4.55
2023-03-29T20:59:48.094Z,4.45
2023-03-29T21:02:22.783Z,3.60
2023-03-29T21:04:51.742Z,4.40
2023-03-29T21:07:20.329Z,4.28
2023-03-29T21:09:50.354Z,4.43
2023-03-29T21:12:17.388Z,3.72
2023-03-29T21:14:44.592Z,4.82
2023-03-29T21:17:11.094Z,3.67
2023-03-29T21:19:39.068Z,3.60
2023-03-29T21:22:05.826Z,4.20
2023-03-29T21:24:33.084Z,3.92
2023-03-29T21:27:00.206Z,3.90
2023-03-29T21:29:26.631Z,4.50
2023-03-29T21:31:53.122Z,3.75
2023-03-29T21:34:19.622Z,4.07
2023-03-29T21:36:46.186Z,4.05
2023-03-29T21:39:12.594Z,3.88
2023-03-29T21:41:39.018Z,3.88
2023-03-29T21:44:05.621Z,4.03
2023-03-29T21:46:32.090Z,4.22
2023-03-29T21:48:58.823Z,3.78
2023-03-29T21:51:25.514Z,4.60
2023-03-29T21:53:51.936Z,4.30
2023-03-29T21:56:18.405Z,3.58
2023-03-29T21:58:44.905Z,4.05
2023-03-29T22:01:11.482Z,4.35
2023-03-29T22:03:38.507Z,4.10
2023-03-29T22:06:09.880Z,4.82
2023-03-29T22:08:38.880Z,3.72
2023-03-29T22:11:09.599Z,4.03
2023-03-29T22:13:36.693Z,4.75
2023-03-29T22:16:04.757Z,3.72
2023-03-29T22:18:46.672Z,3.55
2023-03-29T22:21:14.531Z,3.60
2023-03-29T22:23:55.071Z,4.00
2023-03-29T22:26:24.478Z,4.55
2023-03-29T22:28:51.662Z,3.92
2023-03-29T22:31:20.234Z,3.00
2023-03-29T22:33:47.100Z,3.85
2023-03-29T22:36:17.175Z,3.95
2023-03-29T22:38:44.820Z,4.28
2023-03-29T22:41:11.786Z,3.95
2023-03-29T22:43:38.401Z,3.63
2023-03-29T22:46:06.357Z,3.60
2023-03-29T22:48:33.288Z,3.28
2023-03-29T22:50:59.796Z,3.72
2023-03-29T22:53:27.074Z,3.00
2023-03-29T22:55:54.185Z,3.10
2023-03-29T22:58:20.674Z,3.42
2023-03-29T23:00:47.823Z,3.97
2023-03-29T23:03:14.316Z,3.50
2023-03-29T23:05:40.824Z,3.70
2023-03-29T23:08:07.325Z,3.75
2023-03-29T23:10:33.867Z,3.72
2023-03-29T23:13:10.887Z,3.30
2023-03-29T23:15:45.193Z,3.42
2023-03-29T23:18:19.697Z,2.60
2023-03-29T23:20:47.181Z,3.70
2023-03-29T23:23:14.430Z,3.53
2023-03-29T23:25:43.341Z,3.47
2023-03-29T23:28:09.810Z,3.80
2023-03-29T23:30:37.123Z,3.50
2023-03-29T23:33:03.577Z,3.53
2023-03-29T23:35:30.114Z,3.50
2023-03-29T23:37:56.645Z,3.85
2023-03-29T23:40:24.442Z,4.70
2023-03-29T23:42:50.883Z,4.40
2023-03-29T23:45:18.496Z,4.13
2023-03-29T23:47:45.729Z,3.38
2023-03-29T23:50:13.877Z,3.88
2023-03-29T23:52:41.370Z,4.00
2023-03-29T23:55:09.949Z,3.70
2023-03-29T23:57:37.019Z,3.22
